CST,Max TemperatureF,Mean TemperatureF,Min TemperatureF,Max Dew PointF,MeanDew PointF,Min DewpointF,Max Humidity, Mean Humidity, Min Humidity, Max Sea Level PressureIn, Mean Sea Level PressureIn, Min Sea Level PressureIn, Max VisibilityMiles, Mean VisibilityMiles, Min VisibilityMiles, Max Wind SpeedMPH, Mean Wind SpeedMPH, Max Gust SpeedMPH,PrecipitationIn, CloudCover, Events, WindDirDegrees
2014-1-1,10,0,-9,-2,-7,-15,76,61,50,30.44,30.38,30.34,10,10,10,10,4,,0.00,6,,24
2014-1-2,12,2,-8,-3,-7,-14,79,60,38,30.40,30.35,30.31,10,10,7,12,8,,0.00,3,,1
2014-1-3,19,4,-12,11,-4,-18,79,70,56,30.38,30.07,29.66,10,10,7,13,3,23,0.00,3,,197
2014-1-4,32,22,11,26,14,1,78,68,61,30.09,29.78,29.54,10,10,10,13,7,17,0.00,5,Snow,270
2014-1-5,10,5,-1,1,-7,-14,70,59,40,30.22,30.13,30.05,10,10,10,12,6,16,0.00,1,,317
2014-1-6,-9,-12,-16,-21,-27,-30,60,53,43,30.07,30.04,30.00,10,10,7,18,12,24,0.00,3,,277
2014-1-7,1,-8,-17,-12,-19,-26,65,59,52,30.23,30.10,30.03,10,10,10,15,8,24,0.00,0,,254
2014-1-8,9,-1,-11,-8,-12,-17,79,62,45,30.47,30.35,30.22,10,10,10,9,2,,0.00,1,,267
2014-1-9,18,1,-16,11,-7,-24,79,68,45,30.48,30.33,30.09,10,10,10,6,1,,0.00,3,,211
2014-1-10,33,26,18,32,25,12,97,89,74,30.08,29.81,29.41,10,4,0,7,2,,0.25,8,Rain-Snow,137
2014-1-11,33,32,30,32,28,26,99,87,76,29.64,29.46,29.36,10,8,0,13,4,20,0.00,8,Fog-Snow,280
2014-1-12,40,34,27,30,27,24,88,76,61,29.69,29.57,29.47,10,10,7,12,7,20,0.00,4,,213
2014-1-13,39,34,29,31,26,18,82,71,59,29.66,29.53,29.45,10,10,10,14,4,22,0.00,6,,263
2014-1-14,27,22,18,24,19,10,92,81,66,29.86,29.65,29.52,10,4,0,28,9,34,0.02,8,Snow,24
2014-1-15,19,15,11,10,8,4,81,69,61,29.99,29.87,29.59,10,10,3,10,6,18,0.00,7,Snow,262
2014-1-16,31,22,13,27,18,9,93,81,73,29.62,29.47,29.37,10,8,2,12,6,16,0.02,8,Snow,230
2014-1-17,26,16,4,18,13,0,87,75,60,29.90,29.77,29.61,10,8,1,12,5,16,0.01,7,Snow,313
2014-1-18,20,10,1,11,5,-4,86,81,68,29.86,29.82,29.68,10,10,7,6,1,,0.00,5,Snow,164
2014-1-19,31,22,13,25,19,8,89,78,71,29.66,29.52,29.43,10,10,3,17,8,24,0.00,8,,247
2014-1-20,19,10,1,14,1,-8,79,62,46,30.25,29.97,29.65,10,10,5,14,7,18,0.00,6,Snow,20
2014-1-21,8,1,-6,-7,-9,-12,75,61,45,30.31,30.23,30.09,10,10,10,8,5,,0.00,2,,272
2014-1-22,8,4,1,1,-4,-9,78,68,53,30.11,29.95,29.84,10,6,1,14,4,24,0.00,7,Snow,284
2014-1-23,12,2,-7,-2,-7,-18,75,59,44,30.48,30.38,30.11,10,10,2,12,7,18,0.00,1,Snow,293
2014-1-24,26,9,-8,22,4,-18,86,71,58,30.30,29.69,29.30,10,8,2,17,9,25,0.00,7,Snow,231
2014-1-25,27,12,-2,21,-3,-12,79,55,44,29.74,29.57,29.29,10,10,5,21,10,33,0.00,4,Snow,309
2014-1-26,13,6,0,5,-2,-12,79,67,54,29.71,29.47,29.26,10,8,1,17,3,29,0.00,7,Snow,288
2014-1-27,5,-2,-10,-5,-19,-23,67,51,38,30.27,30.10,29.73,10,10,2,17,11,23,0.00,0,Snow,279
2014-1-28,2,-6,-15,-13,-18,-24,67,55,44,30.26,30.15,30.00,10,10,10,18,9,28,0.00,1,,250
2014-1-29,21,8,-3,9,-5,-13,65,53,36,29.99,29.90,29.70,10,10,10,14,10,22,0.00,0,,232
2014-1-30,28,20,12,23,16,4,90,71,54,29.89,29.63,29.47,10,8,0,10,6,18,0.08,5,Snow,227
2014-1-31,11,3,-6,4,-7,-11,80,64,48,30.12,30.05,29.89,10,10,10,9,5,,0.00,0,,256